createdAt,value
2022-08-12T00:00:47.464Z,35.29
2022-08-12T00:03:32.622Z,35.05
2022-08-12T00:06:17.681Z,34.52
2022-08-12T00:09:02.913Z,34.74
2022-08-12T00:11:47.618Z,35.12
2022-08-12T00:14:32.727Z,35.08
2022-08-12T00:17:17.799Z,35.29
2022-08-12T00:20:02.962Z,35.58
2022-08-12T00:22:53.055Z,35.34
2022-08-12T00:26:21.322Z,35.17
2022-08-12T00:29:04.913Z,35.01
2022-08-12T00:31:49.921Z,34.80
2022-08-12T00:34:35.129Z,34.93
2022-08-12T00:37:20.739Z,35.06
2022-08-12T00:40:11.417Z,34.81
2022-08-12T00:42:40.896Z,34.96
2022-08-12T00:45:08.485Z,34.62
2022-08-12T00:47:35.678Z,34.77
2022-08-12T00:50:03.259Z,34.69
2022-08-12T00:52:30.071Z,35.05
2022-08-12T00:54:59.305Z,35.27
2022-08-12T00:57:32.286Z,35.14
2022-08-12T01:00:12.127Z,35.30
2022-08-12T01:02:42.375Z,35.45
2022-08-12T01:05:36.407Z,34.90
2022-08-12T01:08:23.438Z,34.99
2022-08-12T01:11:09.062Z,35.37
2022-08-12T01:13:40.070Z,35.11
2022-08-12T01:16:08.068Z,35.08
2022-08-12T01:18:39.703Z,35.47
2022-08-12T01:21:09.334Z,35.81
2022-08-12T01:23:36.265Z,35.66
2022-08-12T01:26:04.606Z,35.61
2022-08-12T01:28:32.183Z,35.62
2022-08-12T01:31:01.736Z,35.71
2022-08-12T01:33:34.019Z,36.18
2022-08-12T01:36:08.550Z,36.59
2022-08-12T01:38:36.678Z,36.03
2022-08-12T01:41:04.774Z,36.14
2022-08-12T01:43:32.281Z,36.16
2022-08-12T01:46:22.565Z,36.32
2022-08-12T01:49:09.571Z,36.28
2022-08-12T01:52:20.828Z,36.56
2022-08-12T01:54:38.495Z,36.48
2022-08-12T01:57:15.952Z,36.65
2022-08-12T02:00:07.256Z,36.57
2022-08-12T02:02:40.666Z,36.89
2022-08-12T02:05:49.915Z,36.40
2022-08-12T02:08:44.475Z,36.44
2022-08-12T02:11:35.628Z,36.04
2022-08-12T02:14:25.191Z,35.92
2022-08-12T02:17:00.835Z,36.34
2022-08-12T02:19:34.534Z,37.01
2022-08-12T02:22:44.126Z,36.61
2022-08-12T02:25:19.442Z,36.60
2022-08-12T02:27:48.358Z,36.72
2022-08-12T02:30:19.342Z,36.43
2022-08-12T02:32:49.421Z,36.46
2022-08-12T02:35:19.717Z,36.85
2022-08-12T02:37:48.472Z,36.42
2022-08-12T02:40:15.858Z,37.10
2022-08-12T02:42:53.877Z,36.71
2022-08-12T02:45:39.173Z,37.16
2022-08-12T02:48:11.112Z,37.27
2022-08-12T02:50:42.403Z,37.31
2022-08-12T02:53:09.301Z,37.26
2022-08-12T02:55:38.704Z,37.47
2022-08-12T02:58:12.429Z,38.00
2022-08-12T03:00:42.656Z,37.96
2022-08-12T03:03:11.821Z,37.77
2022-08-12T03:05:45.382Z,37.64
2022-08-12T03:08:14.326Z,38.68
2022-08-12T03:11:03.922Z,38.62
2022-08-12T03:13:33.270Z,38.90
2022-08-12T03:15:59.871Z,39.08
2022-08-12T03:18:31.630Z,38.47
2022-08-12T03:20:59.876Z,38.55
2022-08-12T03:23:30.814Z,38.34
2022-08-12T03:26:02.528Z,39.09
2022-08-12T03:28:54.208Z,39.07
2022-08-12T03:31:35.074Z,38.62
2022-08-12T03:34:07.548Z,39.17
2022-08-12T03:36:36.233Z,38.69
2022-08-12T03:39:18.444Z,39.27
2022-08-12T03:41:52.134Z,39.77
2022-08-12T03:44:52.514Z,39.46
2022-08-12T03:47:53.048Z,39.20
2022-08-12T03:50:39.833Z,39.03
2022-08-12T03:53:28.846Z,39.90
2022-08-12T03:56:14.498Z,39.99
2022-08-12T03:59:00.103Z,41.04
2022-08-12T04:01:27.434Z,41.15
2022-08-12T04:03:54.742Z,41.29
2022-08-12T04:06:35.019Z,41.76
2022-08-12T04:09:05.288Z,41.15
2022-08-12T04:12:01.837Z,41.24
2022-08-12T04:14:28.551Z,40.66
2022-08-12T04:16:57.056Z,41.21
2022-08-12T04:19:25.071Z,41.03
2022-08-12T04:22:01.708Z,41.08
2022-08-12T04:24:35.431Z,40.67
2022-08-12T04:27:08.376Z,40.64
2022-08-12T04:30:30.376Z,40.50
2022-08-12T04:32:22.233Z,41.63
2022-08-12T04:34:49.565Z,41.61
2022-08-12T04:37:16.600Z,41.21
2022-08-12T04:39:44.517Z,41.40
2022-08-12T04:42:11.506Z,41.15
2022-08-12T04:44:37.990Z,41.49
2022-08-12T04:47:04.803Z,41.26
2022-08-12T04:49:32.206Z,41.05
2022-08-12T04:51:59.749Z,40.98
2022-08-12T04:54:27.579Z,41.00
2022-08-12T04:57:04.259Z,40.71
2022-08-12T04:59:47.562Z,40.48
2022-08-12T05:02:21.018Z,40.48
2022-08-12T05:04:56.104Z,40.77
2022-08-12T05:07:27.823Z,40.40
2022-08-12T05:10:00.312Z,40.10
2022-08-12T05:12:38.726Z,40.41
2022-08-12T05:15:19.484Z,40.46
2022-08-12T05:17:53.562Z,40.27
2022-08-12T05:20:22.405Z,39.91
2022-08-12T05:22:49.996Z,39.56
2022-08-12T05:25:20.228Z,39.04
2022-08-12T05:27:58.001Z,38.67
2022-08-12T05:30:25.510Z,38.49
2022-08-12T05:32:53.855Z,38.46
2022-08-12T05:35:21.731Z,37.80
2022-08-12T05:37:49.475Z,39.28
2022-08-12T05:40:16.252Z,39.17
2022-08-12T05:42:43.062Z,38.92
2022-08-12T05:45:10.239Z,38.74
2022-08-12T05:47:53.153Z,38.53
2022-08-12T05:50:20.980Z,38.34
2022-08-12T05:52:48.454Z,38.18
2022-08-12T05:55:15.159Z,37.85
2022-08-12T05:57:41.843Z,37.77
2022-08-12T06:00:08.770Z,37.74
2022-08-12T06:02:35.713Z,37.71
2022-08-12T06:05:02.618Z,37.46
2022-08-12T06:07:37.377Z,38.95
2022-08-12T06:10:17.583Z,38.95
2022-08-12T06:12:58.832Z,39.07
2022-08-12T06:15:25.566Z,38.75
2022-08-12T06:17:52.330Z,38.24
2022-08-12T06:20:26.160Z,37.09
2022-08-12T06:22:56.247Z,37.57
2022-08-12T06:25:22.875Z,37.19
2022-08-12T06:28:07.234Z,36.55
2022-08-12T06:30:38.649Z,36.80
2022-08-12T06:33:24.781Z,36.62
2022-08-12T06:35:55.756Z,37.03
2022-08-12T06:38:25.477Z,36.57
2022-08-12T06:41:13.451Z,37.50
2022-08-12T06:44:06.722Z,37.59
2022-08-12T06:46:29.885Z,37.93
2022-08-12T06:48:58.769Z,36.60
2022-08-12T06:51:27.832Z,37.71
2022-08-12T06:53:55.798Z,36.98
2022-08-12T06:56:39.772Z,37.58
2022-08-12T06:59:11.199Z,37.64
2022-08-12T07:01:38.451Z,37.06
2022-08-12T07:04:26.393Z,36.45
2022-08-12T07:06:51.591Z,35.77
2022-08-12T07:10:03.957Z,35.00
2022-08-12T07:12:04.859Z,34.24
2022-08-12T07:14:31.540Z,34.39
2022-08-12T07:17:02.195Z,35.46
2022-08-12T07:19:45.239Z,34.48
2022-08-12T07:22:14.064Z,33.66
2022-08-12T07:24:40.887Z,32.90
2022-08-12T07:27:07.424Z,33.70
2022-08-12T07:30:03.810Z,32.58
2022-08-12T07:32:24.404Z,32.74
2022-08-12T07:34:51.063Z,32.54
2022-08-12T07:37:17.855Z,32.26
2022-08-12T07:39:50.719Z,32.37
2022-08-12T07:42:27.022Z,32.33
2022-08-12T07:44:53.710Z,31.54
2022-08-12T07:47:20.267Z,31.59
2022-08-12T07:50:04.147Z,31.17
2022-08-12T07:52:38.244Z,31.40
2022-08-12T07:55:05.907Z,31.55
2022-08-12T07:57:32.836Z,30.89
2022-08-12T08:00:05.541Z,31.16
2022-08-12T08:02:37.099Z,31.20
2022-08-12T08:05:04.854Z,31.72
2022-08-12T08:07:31.598Z,30.98
2022-08-12T08:10:00.619Z,30.28
2022-08-12T08:12:46.894Z,30.32
2022-08-12T08:15:15.171Z,29.80
2022-08-12T08:17:59.545Z,28.74
2022-08-12T08:20:28.783Z,29.50
2022-08-12T08:23:00.041Z,28.78
2022-08-12T08:25:38.670Z,27.91
2022-08-12T08:28:10.754Z,27.52
2022-08-12T08:30:45.583Z,27.06
2022-08-12T08:33:24.669Z,26.00
2022-08-12T08:36:02.230Z,26.00
2022-08-12T08:38:33.136Z,26.02
2022-08-12T08:42:15.272Z,25.29
2022-08-12T08:44:11.143Z,25.17
2022-08-12T08:46:39.134Z,23.31
2022-08-12T08:49:06.067Z,24.01
2022-08-12T08:51:33.126Z,22.54
2022-08-12T08:53:59.759Z,22.07
2022-08-12T08:56:29.619Z,21.08
2022-08-12T08:58:57.571Z,20.47
2022-08-12T09:01:24.337Z,19.11
2022-08-12T09:05:11.192Z,19.66
2022-08-12T09:06:41.920Z,18.80
2022-08-12T09:09:12.999Z,18.47
2022-08-12T09:12:10.651Z,17.63
2022-08-12T09:17:42.923Z,17.92
2022-08-12T09:20:15.884Z,17.11
2022-08-12T09:22:42.974Z,17.62
2022-08-12T09:25:25.790Z,16.55
2022-08-12T09:28:03.941Z,15.85
2022-08-12T09:30:41.322Z,13.74
2022-08-12T09:33:18.874Z,11.59
2022-08-12T09:35:46.953Z,10.15
2022-08-12T09:38:32.078Z,9.08
2022-08-12T09:42:09.453Z,9.37
2022-08-12T09:44:05.523Z,9.09
2022-08-12T09:46:34.659Z,7.80
2022-08-12T09:49:04.214Z,6.02
2022-08-12T09:51:44.505Z,4.65
2022-08-12T09:54:33.489Z,4.38
2022-08-12T09:58:08.000Z,2.61
2022-08-12T10:00:12.819Z,3.08
2022-08-12T10:02:49.540Z,3.03
2022-08-12T10:05:17.864Z,2.43
2022-08-12T10:07:47.257Z,2.27
2022-08-12T10:10:23.877Z,3.38
2022-08-12T10:13:14.043Z,3.70
2022-08-12T10:16:02.951Z,3.76
2022-08-12T10:18:51.674Z,3.90
2022-08-12T10:21:23.163Z,4.71
2022-08-12T10:23:51.802Z,3.94
2022-08-12T10:26:42.499Z,4.75
2022-08-12T10:30:38.840Z,5.32
2022-08-12T10:32:42.964Z,5.13
2022-08-12T10:35:10.565Z,5.35
2022-08-12T10:38:33.695Z,5.64
2022-08-12T10:40:31.368Z,4.55
2022-08-12T10:43:17.958Z,4.83
2022-08-12T10:45:48.856Z,4.21
2022-08-12T10:48:21.343Z,3.69
2022-08-12T10:51:02.480Z,5.72
2022-08-12T10:53:44.874Z,6.45
2022-08-12T10:56:17.697Z,6.43
2022-08-12T10:58:46.769Z,5.15
2022-08-12T11:01:50.441Z,4.69
2022-08-12T11:04:22.496Z,5.22
2022-08-12T11:07:05.821Z,5.03
2022-08-12T11:09:41.660Z,4.99
2022-08-12T11:12:54.891Z,5.09
2022-08-12T11:15:19.504Z,4.54
2022-08-12T11:17:54.093Z,3.28
2022-08-12T11:20:30.791Z,2.82
2022-08-12T11:22:59.897Z,3.51
2022-08-12T11:25:56.020Z,4.62
2022-08-12T11:28:34.898Z,4.64
2022-08-12T11:31:05.215Z,4.59
2022-08-12T11:34:05.620Z,4.04
2022-08-12T11:36:22.019Z,3.66
2022-08-12T11:38:50.500Z,3.38
2022-08-12T11:41:30.871Z,3.71
2022-08-12T11:44:04.325Z,2.98
2022-08-12T11:46:47.120Z,4.79
2022-08-12T11:49:20.469Z,3.86
2022-08-12T11:51:57.967Z,4.51
2022-08-12T11:54:24.550Z,3.95
2022-08-12T11:56:52.386Z,3.49
2022-08-12T12:02:16.387Z,5.18
2022-08-12T12:04:45.524Z,4.66
2022-08-12T12:07:19.139Z,4.28
2022-08-12T12:09:52.421Z,4.04
2022-08-12T12:12:25.035Z,4.18
2022-08-12T12:14:54.587Z,3.98
2022-08-12T12:17:23.977Z,4.98
2022-08-12T12:19:51.221Z,4.58
2022-08-12T12:22:23.422Z,6.23
2022-08-12T12:24:54.210Z,9.84
2022-08-12T12:27:20.894Z,11.10
2022-08-12T12:30:18.138Z,12.44
2022-08-12T12:32:54.406Z,13.60
2022-08-12T12:36:20.011Z,14.08
2022-08-12T12:38:12.497Z,14.56
2022-08-12T12:40:43.841Z,14.40
2022-08-12T12:43:12.011Z,15.14
2022-08-12T12:45:44.522Z,15.51
2022-08-12T12:48:15.036Z,15.37
2022-08-12T12:50:51.259Z,15.02
2022-08-12T12:54:06.783Z,15.85
2022-08-12T12:56:15.471Z,15.36
2022-08-12T12:58:43.563Z,16.02
2022-08-12T13:01:25.618Z,16.72
2022-08-12T13:04:02.313Z,15.98
2022-08-12T13:06:30.852Z,15.89
2022-08-12T13:09:02.721Z,15.88
2022-08-12T13:11:39.046Z,15.98
2022-08-12T13:14:13.006Z,15.85
2022-08-12T13:16:54.292Z,16.15
2022-08-12T13:19:25.398Z,16.12
2022-08-12T13:22:21.654Z,15.41
2022-08-12T13:24:55.933Z,15.52
2022-08-12T13:27:35.411Z,16.44
2022-08-12T13:30:12.026Z,15.87
2022-08-12T13:32:57.674Z,16.23
2022-08-12T13:36:04.907Z,16.08
2022-08-12T13:38:35.542Z,15.95
2022-08-12T13:41:03.330Z,15.88
2022-08-12T13:43:40.223Z,15.65
2022-08-12T13:46:12.432Z,16.09
2022-08-12T13:48:45.016Z,16.11
2022-08-12T13:51:12.370Z,16.02
2022-08-12T13:53:59.314Z,15.87
2022-08-12T13:56:29.887Z,15.93
2022-08-12T13:59:02.895Z,15.68
2022-08-12T14:01:30.897Z,15.46
2022-08-12T14:03:59.903Z,15.47
2022-08-12T14:06:30.468Z,15.46
2022-08-12T14:08:58.781Z,15.69
2022-08-12T14:11:27.933Z,15.01
2022-08-12T14:14:05.766Z,15.16
2022-08-12T14:16:49.057Z,15.09
2022-08-12T14:19:22.791Z,14.63
2022-08-12T14:22:00.450Z,14.73
2022-08-12T14:24:40.650Z,15.14
2022-08-12T14:27:10.381Z,15.49
2022-08-12T14:30:05.739Z,15.17
2022-08-12T14:32:28.715Z,15.05
2022-08-12T14:34:56.710Z,14.23
2022-08-12T14:37:55.340Z,14.88
2022-08-12T14:40:11.777Z,15.36
2022-08-12T14:42:46.954Z,15.73
2022-08-12T14:45:14.270Z,15.85
2022-08-12T14:47:53.526Z,14.92
2022-08-12T14:50:37.455Z,15.29
2022-08-12T14:55:19.561Z,14.61
2022-08-12T14:59:20.170Z,15.13
2022-08-12T15:01:47.595Z,14.94
2022-08-12T15:04:15.117Z,14.87
2022-08-12T15:06:51.964Z,14.99
2022-08-12T15:09:19.371Z,15.07
2022-08-12T15:12:03.435Z,14.75
2022-08-12T15:14:31.705Z,15.34
2022-08-12T15:17:00.564Z,15.09
2022-08-12T15:20:28.248Z,15.10
2022-08-12T15:22:37.136Z,15.08
2022-08-12T15:25:07.229Z,15.77
2022-08-12T15:28:20.298Z,15.29
2022-08-12T15:30:30.806Z,15.51
2022-08-12T15:32:57.808Z,15.63
2022-08-12T15:35:27.506Z,15.17
2022-08-12T15:38:18.768Z,15.92
2022-08-12T15:40:51.212Z,16.08
2022-08-12T15:43:51.149Z,15.86
2022-08-12T15:46:06.380Z,16.22
2022-08-12T15:48:33.408Z,16.24
2022-08-12T15:51:01.949Z,16.26
2022-08-12T15:54:05.444Z,16.58
2022-08-12T15:56:54.750Z,16.73
2022-08-12T15:59:32.628Z,17.27
2022-08-12T16:02:08.602Z,16.76
2022-08-12T16:04:36.318Z,17.05
2022-08-12T16:07:09.295Z,17.11
2022-08-12T16:09:56.176Z,17.23
2022-08-12T16:12:23.167Z,17.41
2022-08-12T16:14:54.960Z,17.26
2022-08-12T16:17:25.993Z,17.46
2022-08-12T16:20:11.586Z,16.87
2022-08-12T16:22:38.938Z,17.62
2022-08-12T16:25:10.000Z,17.35
2022-08-12T16:27:38.402Z,17.41
2022-08-12T16:30:05.937Z,17.53
2022-08-12T16:32:35.986Z,17.97
2022-08-12T16:35:08.274Z,17.81
2022-08-12T16:38:24.335Z,17.73
2022-08-12T16:40:34.017Z,17.84
2022-08-12T16:43:04.694Z,18.30
2022-08-12T16:46:07.955Z,18.60
2022-08-12T16:48:35.427Z,18.50
2022-08-12T16:51:12.584Z,18.28
2022-08-12T16:53:43.791Z,18.67
2022-08-12T16:56:15.634Z,18.45
2022-08-12T16:58:43.734Z,18.77
2022-08-12T17:01:14.435Z,18.57
2022-08-12T17:03:46.991Z,18.87
2022-08-12T17:06:22.699Z,18.89
2022-08-12T17:09:02.660Z,18.53
2022-08-12T17:11:32.712Z,18.80
2022-08-12T17:13:59.763Z,18.66
2022-08-12T17:16:30.256Z,18.99
2022-08-12T17:18:59.752Z,19.22
2022-08-12T17:21:40.938Z,19.25
2022-08-12T17:24:21.530Z,18.70
2022-08-12T17:26:49.502Z,18.49
2022-08-12T17:29:24.263Z,18.89
2022-08-12T17:32:08.591Z,18.87
2022-08-12T17:34:55.377Z,18.71
2022-08-12T17:37:22.127Z,18.68
2022-08-12T17:40:15.209Z,18.76
2022-08-12T17:42:35.726Z,19.42
2022-08-12T17:45:18.148Z,19.81
2022-08-12T17:48:01.132Z,19.68
2022-08-12T17:50:35.890Z,19.37
2022-08-12T17:53:03.948Z,20.05
2022-08-12T17:55:44.763Z,19.58
2022-08-12T17:58:15.961Z,19.52
2022-08-12T18:00:47.972Z,19.97
2022-08-12T18:04:04.866Z,19.96
2022-08-12T18:06:14.281Z,20.22
2022-08-12T18:08:53.776Z,19.75
2022-08-12T18:12:04.781Z,19.94
2022-08-12T18:14:28.822Z,19.57
2022-08-12T18:16:57.689Z,20.11
2022-08-12T18:19:48.603Z,19.28
2022-08-12T18:22:22.259Z,19.07
2022-08-12T18:25:04.846Z,18.98
2022-08-12T18:27:44.596Z,20.21
2022-08-12T18:30:20.982Z,20.40
2022-08-12T18:33:05.183Z,21.27
2022-08-12T18:35:47.519Z,20.86
2022-08-12T18:38:24.440Z,21.54
2022-08-12T18:41:11.496Z,21.59
2022-08-12T18:44:05.232Z,20.83
2022-08-12T18:46:46.661Z,21.74
2022-08-12T18:49:19.336Z,22.18
2022-08-12T18:51:55.605Z,22.54
2022-08-12T18:54:49.322Z,22.23
2022-08-12T18:57:46.037Z,22.34
2022-08-12T19:00:18.647Z,21.46
2022-08-12T19:02:51.011Z,21.57
2022-08-12T19:05:17.891Z,22.55
2022-08-12T19:08:00.905Z,22.76
2022-08-12T19:10:34.110Z,22.45
2022-08-12T19:13:24.086Z,22.45
2022-08-12T19:15:58.256Z,22.32
2022-08-12T19:18:29.566Z,22.14
2022-08-12T19:20:57.563Z,22.57
2022-08-12T19:23:34.850Z,23.55
2022-08-12T19:26:03.122Z,23.62
2022-08-12T19:28:36.352Z,23.21
2022-08-12T19:31:55.603Z,23.40
2022-08-12T19:35:00.356Z,22.81
2022-08-12T19:37:27.802Z,23.50
2022-08-12T19:40:31.175Z,23.36
2022-08-12T19:43:02.253Z,23.76
2022-08-12T19:45:50.430Z,23.42
2022-08-12T19:48:19.178Z,23.19
2022-08-12T19:50:50.497Z,23.51
2022-08-12T19:53:20.685Z,23.39
2022-08-12T19:55:52.532Z,23.31
2022-08-12T19:58:22.543Z,24.01
2022-08-12T20:00:53.353Z,24.17
2022-08-12T20:03:38.818Z,23.93
2022-08-12T20:06:11.298Z,23.92
2022-08-12T20:08:48.662Z,24.39
2022-08-12T20:12:12.351Z,24.11
2022-08-12T20:14:09.955Z,23.95
2022-08-12T20:19:52.801Z,23.80
2022-08-12T20:22:24.777Z,23.61
2022-08-12T20:25:01.234Z,23.92
2022-08-12T20:28:04.194Z,24.12
2022-08-12T20:30:18.029Z,24.16
2022-08-12T20:32:59.198Z,24.42
2022-08-12T20:36:06.080Z,24.20
2022-08-12T20:38:26.507Z,24.98
2022-08-12T20:40:55.681Z,24.73
2022-08-12T20:43:24.118Z,24.58
2022-08-12T20:45:58.005Z,24.44
2022-08-12T20:48:25.501Z,25.01
2022-08-12T20:50:55.744Z,24.41
2022-08-12T20:53:27.716Z,25.00
2022-08-12T20:56:31.206Z,24.64
2022-08-12T20:58:59.960Z,25.27
2022-08-12T21:01:29.090Z,25.65
2022-08-12T21:04:32.037Z,25.86
2022-08-12T21:07:08.176Z,26.06
2022-08-12T21:09:47.798Z,26.56
2022-08-12T21:12:28.071Z,26.71
2022-08-12T21:15:16.652Z,26.97
2022-08-12T21:18:11.821Z,27.19
2022-08-12T21:20:50.645Z,27.24
2022-08-12T21:23:19.075Z,27.36
2022-08-12T21:25:46.436Z,27.64
2022-08-12T21:28:14.344Z,27.68
2022-08-12T21:31:10.686Z,28.27
2022-08-12T21:33:58.640Z,28.07
2022-08-12T21:36:32.277Z,28.08
2022-08-12T21:39:18.846Z,28.18
2022-08-12T21:41:52.013Z,27.90
2022-08-12T21:44:32.456Z,28.23
2022-08-12T21:47:21.652Z,27.82
2022-08-12T21:50:02.935Z,27.51
2022-08-12T21:52:35.848Z,28.13
2022-08-12T21:55:18.196Z,28.15
2022-08-12T21:57:53.521Z,27.96
2022-08-12T22:00:33.205Z,28.14
2022-08-12T22:04:10.797Z,28.15
2022-08-12T22:06:31.065Z,28.06
2022-08-12T22:09:16.198Z,27.83
2022-08-12T22:11:49.082Z,27.66
2022-08-12T22:14:24.191Z,27.55
2022-08-12T22:16:52.130Z,27.57
2022-08-12T22:19:19.860Z,28.42
2022-08-12T22:21:53.779Z,28.12
2022-08-12T22:24:26.446Z,28.35
2022-08-12T22:26:58.551Z,27.84
2022-08-12T22:29:43.742Z,27.95
2022-08-12T22:32:12.085Z,27.78
2022-08-12T22:34:39.619Z,27.98
2022-08-12T22:37:11.410Z,28.06
2022-08-12T22:39:46.798Z,28.05
2022-08-12T22:42:34.312Z,28.29
2022-08-12T22:45:23.310Z,28.36
2022-08-12T22:47:55.355Z,28.39
2022-08-12T22:50:28.924Z,28.60
2022-08-12T22:53:15.522Z,28.84
2022-08-12T22:56:00.080Z,28.22
2022-08-12T22:58:40.699Z,28.61
2022-08-12T23:01:10.574Z,28.70
2022-08-12T23:03:49.435Z,28.55
2022-08-12T23:06:23.678Z,28.82
2022-08-12T23:08:51.459Z,28.86
2022-08-12T23:11:23.543Z,28.85
2022-08-12T23:13:56.863Z,28.76
2022-08-12T23:16:31.140Z,28.75
2022-08-12T23:19:10.274Z,28.73
2022-08-12T23:22:06.513Z,29.01
2022-08-12T23:24:53.748Z,29.23
2022-08-12T23:27:50.336Z,29.27
2022-08-12T23:30:24.709Z,28.63
2022-08-12T23:33:00.184Z,28.63
2022-08-12T23:35:45.655Z,28.98
2022-08-12T23:38:30.825Z,28.71
2022-08-12T23:41:03.338Z,28.88
2022-08-12T23:43:39.350Z,29.30
2022-08-12T23:46:08.967Z,29.00
2022-08-12T23:48:37.436Z,29.45
2022-08-12T23:51:21.684Z,29.08
2022-08-12T23:54:02.964Z,29.68
2022-08-12T23:56:32.879Z,29.86
2022-08-12T23:59:07.513Z,29.89
